sensor_id;sensor_type;location;lat;lon;timestamp;pressure;altitude;pressure_sealevel;temperature;humidity
63096;BME280;49184;55.596;37.770;2023-08-06T07:15:54;99908.91;;;28.02;58.80
63096;BME280;49184;55.596;37.770;2023-08-06T07:18:21;99904.50;;;28.05;57.93
63096;BME280;49184;55.596;37.770;2023-08-06T07:20:50;99917.94;;;28.21;57.67
63096;BME280;49184;55.596;37.770;2023-08-06T07:23:18;99913.16;;;28.21;56.48
63096;BME280;49184;55.596;37.770;2023-08-06T07:25:44;99902.25;;;28.23;56.72
63096;BME280;49184;55.596;37.770;2023-08-06T07:28:12;99902.97;;;28.31;57.15
63096;BME280;49184;55.596;37.770;2023-08-06T07:30:39;99899.28;;;28.38;57.46
63096;BME280;49184;55.596;37.770;2023-08-06T07:33:05;99901.22;;;28.48;55.16
63096;BME280;49184;55.596;37.770;2023-08-06T07:35:32;99913.44;;;28.65;56.38
63096;BME280;49184;55.596;37.770;2023-08-06T07:37:58;99900.59;;;28.64;56.79
63096;BME280;49184;55.596;37.770;2023-08-06T07:40:24;99894.84;;;28.71;57.03
63096;BME280;49184;55.596;37.770;2023-08-06T07:42:50;99893.22;;;28.73;56.83
63096;BME280;49184;55.596;37.770;2023-08-06T07:45:16;99896.38;;;28.79;54.09
63096;BME280;49184;55.596;37.770;2023-08-06T07:47:42;99909.81;;;28.95;53.62
63096;BME280;49184;55.596;37.770;2023-08-06T07:50:09;99917.41;;;29.01;53.48
63096;BME280;49184;55.596;37.770;2023-08-06T07:52:35;99910.16;;;29.00;52.71
63096;BME280;49184;55.596;37.770;2023-08-06T07:55:01;99915.22;;;29.13;52.74
63096;BME280;49184;55.596;37.770;2023-08-06T07:57:31;99899.97;;;29.10;51.25
63096;BME280;49184;55.596;37.770;2023-08-06T07:59:57;99895.03;;;29.18;51.80
63096;BME280;49184;55.596;37.770;2023-08-06T08:02:24;99894.25;;;29.17;52.02
63096;BME280;49184;55.596;37.770;2023-08-06T08:04:50;99897.75;;;29.25;52.86
63096;BME280;49184;55.596;37.770;2023-08-06T08:07:16;99903.50;;;29.41;53.58
63096;BME280;49184;55.596;37.770;2023-08-06T08:09:42;99892.66;;;29.40;53.34
63096;BME280;49184;55.596;37.770;2023-08-06T08:12:09;99899.66;;;29.55;53.09
63096;BME280;49184;55.596;37.770;2023-08-06T08:14:35;99884.53;;;29.45;51.08
63096;BME280;49184;55.596;37.770;2023-08-06T08:17:04;99891.94;;;29.59;52.05
63096;BME280;49184;55.596;37.770;2023-08-06T08:19:32;99882.31;;;29.57;50.43
63096;BME280;49184;55.596;37.770;2023-08-06T08:21:58;99890.13;;;29.72;51.66
63096;BME280;49184;55.596;37.770;2023-08-06T08:24:24;99885.97;;;29.81;51.49
63096;BME280;49184;55.596;37.770;2023-08-06T08:26:51;99859.44;;;29.78;51.39
63096;BME280;49184;55.596;37.770;2023-08-06T08:29:17;99876.13;;;29.89;50.75
63096;BME280;49184;55.596;37.770;2023-08-06T08:31:43;99871.34;;;29.86;50.77
63096;BME280;49184;55.596;37.770;2023-08-06T08:34:13;99888.88;;;29.97;51.30
63096;BME280;49184;55.596;37.770;2023-08-06T08:36:39;99874.84;;;29.93;50.46
63096;BME280;49184;55.596;37.770;2023-08-06T08:39:05;99868.34;;;29.96;50.81
63096;BME280;49184;55.596;37.770;2023-08-06T08:41:33;99873.94;;;30.00;49.75
63096;BME280;49184;55.596;37.770;2023-08-06T08:43:59;99858.59;;;30.01;50.61
63096;BME280;49184;55.596;37.770;2023-08-06T08:46:27;99870.44;;;30.12;51.20
63096;BME280;49184;55.596;37.770;2023-08-06T08:48:55;99870.69;;;30.22;50.44
63096;BME280;49184;55.596;37.770;2023-08-06T08:51:23;99878.59;;;30.30;48.15
63096;BME280;49184;55.596;37.770;2023-08-06T08:53:51;99864.56;;;30.27;47.56
63096;BME280;49184;55.596;37.770;2023-08-06T08:56:19;99878.38;;;30.41;48.58
63096;BME280;49184;55.596;37.770;2023-08-06T08:58:45;99854.72;;;30.35;49.33
63096;BME280;49184;55.596;37.770;2023-08-06T09:01:11;99858.00;;;30.50;48.18
63096;BME280;49184;55.596;37.770;2023-08-06T09:03:37;99853.53;;;30.52;49.66
63096;BME280;49184;55.596;37.770;2023-08-06T09:06:04;99865.72;;;30.65;49.83
63096;BME280;49184;55.596;37.770;2023-08-06T09:08:36;99865.31;;;30.67;49.38
63096;BME280;49184;55.596;37.770;2023-08-06T09:11:04;99864.16;;;30.64;49.06
63096;BME280;49184;55.596;37.770;2023-08-06T09:13:30;99863.78;;;30.62;47.93
63096;BME280;49184;55.596;37.770;2023-08-06T09:15:59;99865.22;;;30.71;49.01
63096;BME280;49184;55.596;37.770;2023-08-06T09:18:27;99866.81;;;30.72;49.02
63096;BME280;49184;55.596;37.770;2023-08-06T09:20:57;99842.44;;;30.61;48.70
63096;BME280;49184;55.596;37.770;2023-08-06T09:23:29;99847.06;;;30.72;48.74
63096;BME280;49184;55.596;37.770;2023-08-06T09:25:56;99851.78;;;30.78;49.43
63096;BME280;49184;55.596;37.770;2023-08-06T09:28:23;99848.16;;;30.78;49.41
63096;BME280;49184;55.596;37.770;2023-08-06T09:30:50;99848.69;;;30.89;48.98
63096;BME280;49184;55.596;37.770;2023-08-06T09:33:19;99854.63;;;30.95;48.85
63096;BME280;49184;55.596;37.770;2023-08-06T09:35:47;99853.75;;;30.98;49.26
63096;BME280;49184;55.596;37.770;2023-08-06T09:38:14;99831.84;;;30.85;48.63
63096;BME280;49184;55.596;37.770;2023-08-06T09:40:40;99857.34;;;30.98;47.74
63096;BME280;49184;55.596;37.770;2023-08-06T09:43:06;99846.25;;;30.91;48.58
63096;BME280;49184;55.596;37.770;2023-08-06T09:45:37;99850.47;;;30.99;48.45
63096;BME280;49184;55.596;37.770;2023-08-06T09:48:05;99839.53;;;31.01;48.57
63096;BME280;49184;55.596;37.770;2023-08-06T09:50:33;99842.97;;;31.09;49.41
63096;BME280;49184;55.596;37.770;2023-08-06T09:53:03;99836.63;;;31.05;47.71
63096;BME280;49184;55.596;37.770;2023-08-06T09:55:29;99815.38;;;31.00;47.23
63096;BME280;49184;55.596;37.770;2023-08-06T09:57:55;99830.47;;;31.10;47.25
63096;BME280;49184;55.596;37.770;2023-08-06T10:00:23;99827.88;;;31.16;47.46
63096;BME280;49184;55.596;37.770;2023-08-06T10:02:50;99808.13;;;31.16;46.58
63096;BME280;49184;55.596;37.770;2023-08-06T10:05:20;99808.28;;;31.25;46.88
63096;BME280;49184;55.596;37.770;2023-08-06T10:07:47;99800.19;;;31.27;46.69
63096;BME280;49184;55.596;37.770;2023-08-06T10:10:13;99802.84;;;31.34;45.37
63096;BME280;49184;55.596;37.770;2023-08-06T10:12:43;99789.97;;;31.33;46.09
63096;BME280;49184;55.596;37.770;2023-08-06T10:15:14;99812.88;;;31.51;46.20
63096;BME280;49184;55.596;37.770;2023-08-06T10:17:43;99808.13;;;31.48;46.19
63096;BME280;49184;55.596;37.770;2023-08-06T10:20:11;99809.16;;;31.54;46.18
63096;BME280;49184;55.596;37.770;2023-08-06T10:22:42;99790.72;;;31.50;45.62
63096;BME280;49184;55.596;37.770;2023-08-06T10:25:09;99794.50;;;31.59;45.09
63096;BME280;49184;55.596;37.770;2023-08-06T10:27:52;99799.84;;;31.70;44.35
63096;BME280;49184;55.596;37.770;2023-08-06T10:30:33;99786.47;;;31.58;44.49
63096;BME280;49184;55.596;37.770;2023-08-06T10:33:01;99802.00;;;31.66;44.69
63096;BME280;49184;55.596;37.770;2023-08-06T10:35:48;99796.19;;;31.57;45.87
63096;BME280;49184;55.596;37.770;2023-08-06T10:38:25;99782.69;;;31.32;46.08
63096;BME280;49184;55.596;37.770;2023-08-06T10:46:02;99796.41;;;31.79;45.70
63096;BME280;49184;55.596;37.770;2023-08-06T10:48:40;99799.16;;;31.95;45.51
63096;BME280;49184;55.596;37.770;2023-08-06T10:51:11;99784.03;;;31.89;44.93
63096;BME280;49184;55.596;37.770;2023-08-06T10:53:38;99790.00;;;31.91;44.69
63096;BME280;49184;55.596;37.770;2023-08-06T10:56:15;99779.72;;;31.97;45.07
63096;BME280;49184;55.596;37.770;2023-08-06T10:58:45;99785.53;;;32.07;44.58
63096;BME280;49184;55.596;37.770;2023-08-06T11:01:12;99780.34;;;32.18;45.27
63096;BME280;49184;55.596;37.770;2023-08-06T11:03:39;99775.34;;;32.22;44.93
63096;BME280;49184;55.596;37.770;2023-08-06T11:06:09;99773.56;;;32.28;43.92
63096;BME280;49184;55.596;37.770;2023-08-06T11:08:37;99761.69;;;32.20;43.65
63096;BME280;49184;55.596;37.770;2023-08-06T11:11:14;99772.78;;;32.27;44.55
63096;BME280;49184;55.596;37.770;2023-08-06T11:13:41;99774.84;;;32.40;44.50
63096;BME280;49184;55.596;37.770;2023-08-06T11:16:08;99772.28;;;32.45;43.54
63096;BME280;49184;55.596;37.770;2023-08-06T11:18:34;99768.19;;;32.46;43.91
63096;BME280;49184;55.596;37.770;2023-08-06T11:21:01;99756.88;;;32.46;44.30
63096;BME280;49184;55.596;37.770;2023-08-06T11:23:28;99769.22;;;32.65;44.33
63096;BME280;49184;55.596;37.770;2023-08-06T11:25:58;99753.69;;;32.57;43.04
63096;BME280;49184;55.596;37.770;2023-08-06T11:28:24;99770.31;;;32.81;43.51
63096;BME280;49184;55.596;37.770;2023-08-06T11:30:51;99762.84;;;32.74;42.58
63096;BME280;49184;55.596;37.770;2023-08-06T11:33:23;99760.13;;;32.70;42.41
63096;BME280;49184;55.596;37.770;2023-08-06T11:35:53;99770.56;;;32.86;43.12
63096;BME280;49184;55.596;37.770;2023-08-06T11:38:20;99765.13;;;32.92;42.69
63096;BME280;49184;55.596;37.770;2023-08-06T11:40:50;99763.53;;;33.04;42.52
63096;BME280;49184;55.596;37.770;2023-08-06T11:43:18;99753.88;;;33.01;42.76
63096;BME280;49184;55.596;37.770;2023-08-06T11:45:44;99754.13;;;33.07;41.24
63096;BME280;49184;55.596;37.770;2023-08-06T11:48:10;99761.31;;;33.20;42.18
63096;BME280;49184;55.596;37.770;2023-08-06T11:50:37;99761.88;;;33.28;41.67
63096;BME280;49184;55.596;37.770;2023-08-06T11:53:06;99749.19;;;33.20;40.86
63096;BME280;49184;55.596;37.770;2023-08-06T11:55:33;99760.88;;;33.22;42.07
63096;BME280;49184;55.596;37.770;2023-08-06T11:58:03;99755.22;;;33.22;41.82
63096;BME280;49184;55.596;37.770;2023-08-06T12:00:49;99751.13;;;33.23;42.32
63096;BME280;49184;55.596;37.770;2023-08-06T12:03:19;99745.59;;;33.19;42.36
63096;BME280;49184;55.596;37.770;2023-08-06T12:05:46;99744.19;;;33.24;42.11
63096;BME280;49184;55.596;37.770;2023-08-06T12:08:12;99747.94;;;33.21;42.67
63096;BME280;49184;55.596;37.770;2023-08-06T12:10:38;99740.41;;;32.92;42.85
63096;BME280;49184;55.596;37.770;2023-08-06T12:13:04;99753.56;;;32.73;43.12
63096;BME280;49184;55.596;37.770;2023-08-06T12:15:30;99714.84;;;32.32;43.51
63096;BME280;49184;55.596;37.770;2023-08-06T12:17:56;99738.94;;;32.24;43.67
63096;BME280;49184;55.596;37.770;2023-08-06T12:20:22;99728.19;;;32.19;44.12
63096;BME280;49184;55.596;37.770;2023-08-06T12:22:49;99718.94;;;32.44;44.12
63096;BME280;49184;55.596;37.770;2023-08-06T12:25:15;99721.41;;;32.67;42.50
63096;BME280;49184;55.596;37.770;2023-08-06T12:27:44;99723.53;;;32.89;42.10
63096;BME280;49184;55.596;37.770;2023-08-06T12:30:12;99726.91;;;33.09;42.62
63096;BME280;49184;55.596;37.770;2023-08-06T12:32:39;99736.56;;;33.12;41.77
63096;BME280;49184;55.596;37.770;2023-08-06T12:35:06;99730.63;;;33.19;42.41
63096;BME280;49184;55.596;37.770;2023-08-06T12:37:35;99723.50;;;33.14;40.13
63096;BME280;49184;55.596;37.770;2023-08-06T12:40:04;99720.66;;;33.14;42.14
63096;BME280;49184;55.596;37.770;2023-08-06T12:42:31;99699.50;;;32.93;42.32
63096;BME280;49184;55.596;37.770;2023-08-06T12:44:57;99726.09;;;33.21;42.10
63096;BME280;49184;55.596;37.770;2023-08-06T12:47:24;99708.44;;;33.05;42.55
63096;BME280;49184;55.596;37.770;2023-08-06T12:49:50;99726.28;;;33.27;41.99
63096;BME280;49184;55.596;37.770;2023-08-06T12:52:16;99711.41;;;33.36;43.84
63096;BME280;49184;55.596;37.770;2023-08-06T12:54:44;99713.53;;;33.44;42.30
63096;BME280;49184;55.596;37.770;2023-08-06T12:57:12;99717.91;;;33.58;42.88
63096;BME280;49184;55.596;37.770;2023-08-06T12:59:38;99703.53;;;33.53;42.39
63096;BME280;49184;55.596;37.770;2023-08-06T13:02:05;99709.06;;;33.56;41.48
63096;BME280;49184;55.596;37.770;2023-08-06T13:04:31;99726.09;;;33.43;40.29
63096;BME280;49184;55.596;37.770;2023-08-06T13:06:57;99699.41;;;33.32;40.57
63096;BME280;49184;55.596;37.770;2023-08-06T13:09:23;99710.13;;;33.50;41.68
63096;BME280;49184;55.596;37.770;2023-08-06T13:11:50;99691.38;;;33.30;40.41
63096;BME280;49184;55.596;37.770;2023-08-06T13:14:16;99700.38;;;33.51;40.97
63096;BME280;49184;55.596;37.770;2023-08-06T13:16:43;99698.41;;;33.48;40.49
63096;BME280;49184;55.596;37.770;2023-08-06T13:19:10;99702.06;;;33.48;41.36
63096;BME280;49184;55.596;37.770;2023-08-06T13:24:08;99696.06;;;33.46;40.97
63096;BME280;49184;55.596;37.770;2023-08-06T13:26:35;99677.94;;;33.43;41.87
63096;BME280;49184;55.596;37.770;2023-08-06T13:29:01;99688.94;;;33.41;41.43
63096;BME280;49184;55.596;37.770;2023-08-06T13:31:28;99689.88;;;33.38;41.08
63096;BME280;49184;55.596;37.770;2023-08-06T13:33:54;99693.41;;;33.30;40.08
63096;BME280;49184;55.596;37.770;2023-08-06T13:36:22;99701.25;;;33.26;39.86
63096;BME280;49184;55.596;37.770;2023-08-06T13:38:48;99696.03;;;33.24;41.91
63096;BME280;49184;55.596;37.770;2023-08-06T13:41:15;99691.09;;;33.37;41.33
63096;BME280;49184;55.596;37.770;2023-08-06T13:43:42;99683.41;;;33.38;41.39
63096;BME280;49184;55.596;37.770;2023-08-06T13:46:10;99675.84;;;33.35;41.39
63096;BME280;49184;55.596;37.770;2023-08-06T13:48:40;99669.47;;;33.31;41.24
63096;BME280;49184;55.596;37.770;2023-08-06T13:51:06;99685.28;;;33.41;39.98
63096;BME280;49184;55.596;37.770;2023-08-06T13:53:32;99687.16;;;33.35;41.76
63096;BME280;49184;55.596;37.770;2023-08-06T13:55:58;99680.59;;;33.38;42.34
63096;BME280;49184;55.596;37.770;2023-08-06T13:58:24;99671.72;;;33.36;41.96
63096;BME280;49184;55.596;37.770;2023-08-06T14:00:52;99664.88;;;33.24;40.69
63096;BME280;49184;55.596;37.770;2023-08-06T14:03:20;99668.16;;;33.22;40.99
63096;BME280;49184;55.596;37.770;2023-08-06T14:05:46;99671.56;;;33.17;41.78
63096;BME280;49184;55.596;37.770;2023-08-06T14:08:12;99681.22;;;33.20;42.25
63096;BME280;49184;55.596;37.770;2023-08-06T14:10:39;99674.66;;;33.10;41.95
63096;BME280;49184;55.596;37.770;2023-08-06T14:13:05;99682.84;;;32.95;40.98
63096;BME280;49184;55.596;37.770;2023-08-06T14:15:30;99663.59;;;32.90;41.73
63096;BME280;49184;55.596;37.770;2023-08-06T14:17:58;99670.53;;;33.02;42.31
63096;BME280;49184;55.596;37.770;2023-08-06T14:20:24;99663.25;;;33.01;43.01
63096;BME280;49184;55.596;37.770;2023-08-06T14:22:52;99667.22;;;33.04;42.78
63096;BME280;49184;55.596;37.770;2023-08-06T14:25:18;99664.25;;;33.07;42.17
63096;BME280;49184;55.596;37.770;2023-08-06T14:27:44;99666.03;;;33.14;42.98
63096;BME280;49184;55.596;37.770;2023-08-06T14:30:10;99656.88;;;33.10;42.31
63096;BME280;49184;55.596;37.770;2023-08-06T14:32:36;99647.72;;;33.06;42.35
63096;BME280;49184;55.596;37.770;2023-08-06T14:35:02;99641.41;;;33.02;42.55
63096;BME280;49184;55.596;37.770;2023-08-06T14:37:28;99652.91;;;33.07;42.69
63096;BME280;49184;55.596;37.770;2023-08-06T14:39:54;99660.84;;;33.12;42.62
63096;BME280;49184;55.596;37.770;2023-08-06T14:42:20;99641.28;;;33.05;41.47
63096;BME280;49184;55.596;37.770;2023-08-06T14:44:46;99648.50;;;33.06;41.81
63096;BME280;49184;55.596;37.770;2023-08-06T14:47:12;99661.16;;;33.14;41.15
63096;BME280;49184;55.596;37.770;2023-08-06T14:49:38;99652.13;;;33.07;40.91
63096;BME280;49184;55.596;37.770;2023-08-06T14:52:05;99657.94;;;33.03;41.17
63096;BME280;49184;55.596;37.770;2023-08-06T14:54:31;99642.66;;;32.88;41.11
63096;BME280;49184;55.596;37.770;2023-08-06T14:56:57;99637.25;;;32.81;41.61
63096;BME280;49184;55.596;37.770;2023-08-06T14:59:24;99642.06;;;32.93;41.07
63096;BME280;49184;55.596;37.770;2023-08-06T15:01:51;99645.59;;;32.97;41.57
63096;BME280;49184;55.596;37.770;2023-08-06T15:04:17;99655.56;;;33.02;42.09
63096;BME280;49184;55.596;37.770;2023-08-06T15:06:45;99645.47;;;33.01;42.00
63096;BME280;49184;55.596;37.770;2023-08-06T15:09:11;99645.81;;;33.03;41.79
63096;BME280;49184;55.596;37.770;2023-08-06T15:11:38;99648.19;;;32.91;41.77
63096;BME280;49184;55.596;37.770;2023-08-06T15:14:04;99652.53;;;32.96;41.56
63096;BME280;49184;55.596;37.770;2023-08-06T15:16:33;99638.59;;;32.89;42.59
63096;BME280;49184;55.596;37.770;2023-08-06T15:19:00;99660.88;;;33.00;41.75
63096;BME280;49184;55.596;37.770;2023-08-06T15:21:27;99643.34;;;32.92;41.92
63096;BME280;49184;55.596;37.770;2023-08-06T15:23:55;99614.63;;;32.68;41.84
63096;BME280;49184;55.596;37.770;2023-08-06T15:26:21;99641.19;;;32.83;41.99
63096;BME280;49184;55.596;37.770;2023-08-06T15:28:47;99644.03;;;32.83;42.30
63096;BME280;49184;55.596;37.770;2023-08-06T15:31:13;99651.88;;;32.79;42.92
63096;BME280;49184;55.596;37.770;2023-08-06T15:33:40;99649.63;;;32.61;41.87
63096;BME280;49184;55.596;37.770;2023-08-06T15:36:08;99648.53;;;32.59;42.47
63096;BME280;49184;55.596;37.770;2023-08-06T15:38:34;99630.78;;;32.45;42.97
63096;BME280;49184;55.596;37.770;2023-08-06T15:41:00;99621.69;;;32.25;42.24
63096;BME280;49184;55.596;37.770;2023-08-06T15:43:27;99645.34;;;32.31;43.19
63096;BME280;49184;55.596;37.770;2023-08-06T15:45:53;99655.56;;;32.16;42.61
63096;BME280;49184;55.596;37.770;2023-08-06T15:48:19;99658.69;;;32.05;43.22
63096;BME280;49184;55.596;37.770;2023-08-06T15:50:45;99643.28;;;31.80;43.48
63096;BME280;49184;55.596;37.770;2023-08-06T15:53:11;99653.66;;;31.71;44.29
63096;BME280;49184;55.596;37.770;2023-08-06T15:55:37;99654.19;;;31.53;45.25
63096;BME280;49184;55.596;37.770;2023-08-06T15:58:03;99657.88;;;31.37;44.56
63096;BME280;49184;55.596;37.770;2023-08-06T16:00:33;99653.13;;;31.18;45.62
63096;BME280;49184;55.596;37.770;2023-08-06T16:02:59;99649.09;;;31.02;45.73
63096;BME280;49184;55.596;37.770;2023-08-06T16:05:25;99631.50;;;30.82;46.54
63096;BME280;49184;55.596;37.770;2023-08-06T16:07:51;99652.41;;;30.84;46.68
63096;BME280;49184;55.596;37.770;2023-08-06T16:10:18;99644.72;;;30.69;47.47
63096;BME280;49184;55.596;37.770;2023-08-06T16:12:45;99637.88;;;30.53;47.41
63096;BME280;49184;55.596;37.770;2023-08-06T16:15:11;99648.91;;;30.48;47.81
63096;BME280;49184;55.596;37.770;2023-08-06T16:17:40;99631.69;;;30.26;47.95
63096;BME280;49184;55.596;37.770;2023-08-06T16:20:06;99634.28;;;30.16;47.96
63096;BME280;49184;55.596;37.770;2023-08-06T16:22:33;99636.66;;;30.02;48.19
63096;BME280;49184;55.596;37.770;2023-08-06T16:24:59;99632.84;;;29.92;48.26
63096;BME280;49184;55.596;37.770;2023-08-06T16:27:25;99641.47;;;29.85;48.83
63096;BME280;49184;55.596;37.770;2023-08-06T16:29:51;99629.44;;;29.64;48.99
63096;BME280;49184;55.596;37.770;2023-08-06T16:32:17;99654.72;;;29.68;50.08
63096;BME280;49184;55.596;37.770;2023-08-06T16:34:43;99645.31;;;29.55;49.25
63096;BME280;49184;55.596;37.770;2023-08-06T16:37:10;99635.22;;;29.37;49.64
63096;BME280;49184;55.596;37.770;2023-08-06T16:39:36;99644.09;;;29.36;49.99
63096;BME280;49184;55.596;37.770;2023-08-06T16:42:03;99637.97;;;29.21;49.88
63096;BME280;49184;55.596;37.770;2023-08-06T16:44:32;99641.34;;;29.12;50.35
63096;BME280;49184;55.596;37.770;2023-08-06T16:46:59;99650.63;;;29.09;50.66
63096;BME280;49184;55.596;37.770;2023-08-06T16:49:26;99640.41;;;28.95;50.67
63096;BME280;49184;55.596;37.770;2023-08-06T16:51:52;99654.03;;;28.97;51.60
63096;BME280;49184;55.596;37.770;2023-08-06T16:54:20;99641.03;;;28.83;50.87
63096;BME280;49184;55.596;37.770;2023-08-06T16:56:46;99632.84;;;28.69;51.97
63096;BME280;49184;55.596;37.770;2023-08-06T16:59:13;99635.41;;;28.60;51.67
63096;BME280;49184;55.596;37.770;2023-08-06T17:01:39;99644.25;;;28.62;51.34
63096;BME280;49184;55.596;37.770;2023-08-06T17:04:06;99641.16;;;28.52;51.55
63096;BME280;49184;55.596;37.770;2023-08-06T17:06:32;99654.13;;;28.46;51.85
63096;BME280;49184;55.596;37.770;2023-08-06T17:08:58;99651.81;;;28.38;51.82
63096;BME280;49184;55.596;37.770;2023-08-06T17:11:25;99632.81;;;28.22;52.00
63096;BME280;49184;55.596;37.770;2023-08-06T17:13:51;99661.59;;;28.29;52.24
63096;BME280;49184;55.596;37.770;2023-08-06T17:16:19;99648.91;;;28.18;52.63
63096;BME280;49184;55.596;37.770;2023-08-06T17:18:45;99640.75;;;28.00;52.49
63096;BME280;49184;55.596;37.770;2023-08-06T17:21:11;99649.69;;;27.95;54.06
63096;BME280;49184;55.596;37.770;2023-08-06T17:23:37;99643.00;;;27.81;53.20
63096;BME280;49184;55.596;37.770;2023-08-06T17:26:04;99638.25;;;27.75;53.46
63096;BME280;49184;55.596;37.770;2023-08-06T17:28:31;99651.06;;;27.79;53.47
63096;BME280;49184;55.596;37.770;2023-08-06T17:30:58;99651.19;;;27.69;54.03
63096;BME280;49184;55.596;37.770;2023-08-06T17:33:24;99650.06;;;27.62;53.89
63096;BME280;49184;55.596;37.770;2023-08-06T17:35:56;99646.19;;;27.53;53.62
63096;BME280;49184;55.596;37.770;2023-08-06T17:38:22;99635.44;;;27.44;54.05
63096;BME280;49184;55.596;37.770;2023-08-06T17:40:55;99645.13;;;27.39;55.31
63096;BME280;49184;55.596;37.770;2023-08-06T17:43:25;99636.41;;;27.30;54.36
63096;BME280;49184;55.596;37.770;2023-08-06T17:45:51;99637.69;;;27.26;54.93
63096;BME280;49184;55.596;37.770;2023-08-06T17:48:17;99657.66;;;27.31;54.65
63096;BME280;49184;55.596;37.770;2023-08-06T17:50:46;99658.47;;;27.28;55.04
63096;BME280;49184;55.596;37.770;2023-08-06T17:53:13;99621.84;;;27.05;55.49
63096;BME280;49184;55.596;37.770;2023-08-06T17:55:39;99641.41;;;27.12;55.57
63096;BME280;49184;55.596;37.770;2023-08-06T17:58:05;99653.47;;;27.09;55.80
63096;BME280;49184;55.596;37.770;2023-08-06T18:00:32;99637.59;;;26.91;55.90
63096;BME280;49184;55.596;37.770;2023-08-06T18:03:01;99631.22;;;26.87;56.86
63096;BME280;49184;55.596;37.770;2023-08-06T18:05:34;99655.56;;;26.98;56.16
63096;BME280;49184;55.596;37.770;2023-08-06T18:08:00;99660.84;;;26.96;56.21
63096;BME280;49184;55.596;37.770;2023-08-06T18:10:26;99654.41;;;26.95;56.34
63096;BME280;49184;55.596;37.770;2023-08-06T18:12:54;99655.66;;;26.90;57.03
63096;BME280;49184;55.596;37.770;2023-08-06T18:15:21;99651.69;;;26.84;56.43
63096;BME280;49184;55.596;37.770;2023-08-06T18:17:48;99660.03;;;26.91;56.72
63096;BME280;49184;55.596;37.770;2023-08-06T18:20:15;99654.50;;;26.84;57.00
63096;BME280;49184;55.596;37.770;2023-08-06T18:22:41;99657.72;;;26.86;56.97
63096;BME280;49184;55.596;37.770;2023-08-06T18:25:08;99654.91;;;26.86;57.22
63096;BME280;49184;55.596;37.770;2023-08-06T18:27:35;99659.34;;;26.80;56.78
63096;BME280;49184;55.596;37.770;2023-08-06T18:30:02;99650.25;;;26.65;57.65
63096;BME280;49184;55.596;37.770;2023-08-06T18:32:32;99659.06;;;26.67;58.17
63096;BME280;49184;55.596;37.770;2023-08-06T18:34:58;99653.59;;;26.53;58.31
63096;BME280;49184;55.596;37.770;2023-08-06T18:37:24;99625.66;;;26.35;58.62
63096;BME280;49184;55.596;37.770;2023-08-06T18:39:52;99645.22;;;26.46;58.93
63096;BME280;49184;55.596;37.770;2023-08-06T18:42:26;99643.63;;;26.41;59.67
63096;BME280;49184;55.596;37.770;2023-08-06T18:44:53;99652.03;;;26.41;59.31
63096;BME280;49184;55.596;37.770;2023-08-06T18:47:19;99674.03;;;26.46;59.68
63096;BME280;49184;55.596;37.770;2023-08-06T18:49:50;99666.03;;;26.45;59.92
63096;BME280;49184;55.596;37.770;2023-08-06T18:52:18;99660.44;;;26.41;59.48
63096;BME280;49184;55.596;37.770;2023-08-06T18:54:45;99642.94;;;26.30;59.96
63096;BME280;49184;55.596;37.770;2023-08-06T18:57:12;99655.78;;;26.24;60.21
63096;BME280;49184;55.596;37.770;2023-08-06T18:59:41;99648.22;;;26.17;60.19
63096;BME280;49184;55.596;37.770;2023-08-06T19:02:08;99643.03;;;26.16;60.18
63096;BME280;49184;55.596;37.770;2023-08-06T19:04:34;99645.47;;;26.10;60.52
63096;BME280;49184;55.596;37.770;2023-08-06T19:07:01;99631.53;;;25.99;60.76
63096;BME280;49184;55.596;37.770;2023-08-06T19:09:28;99645.88;;;26.05;61.14
63096;BME280;49184;55.596;37.770;2023-08-06T19:11:55;99641.94;;;25.95;61.49
63096;BME280;49184;55.596;37.770;2023-08-06T19:14:22;99642.41;;;25.90;61.29
63096;BME280;49184;55.596;37.770;2023-08-06T19:16:48;99642.78;;;25.89;62.13
63096;BME280;49184;55.596;37.770;2023-08-06T19:19:19;99649.19;;;25.86;62.02
63096;BME280;49184;55.596;37.770;2023-08-06T19:21:45;99640.03;;;25.74;62.34
63096;BME280;49184;55.596;37.770;2023-08-06T19:24:13;99632.91;;;25.66;62.78
63096;BME280;49184;55.596;37.770;2023-08-06T19:47:18;99646.63;;;25.32;64.60
63096;BME280;49184;55.596;37.770;2023-08-06T19:49:44;99625.06;;;25.22;64.89
63096;BME280;49184;55.596;37.770;2023-08-06T19:58:02;99644.28;;;25.13;65.69
63096;BME280;49184;55.596;37.770;2023-08-06T20:00:28;99637.88;;;25.01;65.94
63096;BME280;49184;55.596;37.770;2023-08-06T20:02:55;99634.69;;;24.96;65.75
63096;BME280;49184;55.596;37.770;2023-08-06T20:05:21;99633.50;;;24.93;66.22
63096;BME280;49184;55.596;37.770;2023-08-06T20:07:47;99622.75;;;24.84;66.77
63096;BME280;49184;55.596;37.770;2023-08-06T20:10:13;99622.72;;;24.88;66.86
63096;BME280;49184;55.596;37.770;2023-08-06T20:12:40;99627.53;;;24.88;67.02
63096;BME280;49184;55.596;37.770;2023-08-06T20:15:07;99625.53;;;24.84;66.75
63096;BME280;49184;55.596;37.770;2023-08-06T20:17:33;99625.53;;;24.81;67.03
63096;BME280;49184;55.596;37.770;2023-08-06T20:19:59;99629.53;;;24.76;67.50
63096;BME280;49184;55.596;37.770;2023-08-06T20:22:25;99638.31;;;24.82;67.18
63096;BME280;49184;55.596;37.770;2023-08-06T20:24:51;99627.53;;;24.70;67.65
63096;BME280;49184;55.596;37.770;2023-08-06T20:27:18;99624.38;;;24.68;67.71
63096;BME280;49184;55.596;37.770;2023-08-06T20:29:45;99626.75;;;24.69;67.90
63096;BME280;49184;55.596;37.770;2023-08-06T20:32:11;99642.31;;;24.67;67.73
63096;BME280;49184;55.596;37.770;2023-08-06T20:34:37;99631.94;;;24.56;68.08
63096;BME280;49184;55.596;37.770;2023-08-06T20:37:03;99630.34;;;24.59;68.31
63096;BME280;49184;55.596;37.770;2023-08-06T20:39:29;99644.72;;;24.61;68.60